Data for 06/06/2013

Time Sea-Level Adjusted Pressure Absolute Pressure Temperature Relative Humidity Dew Point Precipitation   
(mb) (inHg) (mb) (inHg) (C) (F) (%) (C) (F) (mm) (in)
00:05 1021 30.15 850 25.1 9.1 48.3 75 4.9 40.9 0 0
00:10 1021 30.15 850 25.1 9.3 48.7 70 4.1 39.3 0 0
00:15 1021 30.15 850 25.1 10.3 50.5 65 4.1 39.3 0 0
00:20 1021 30.15 850 25.1 10.9 51.7 64 4.5 40.1 0 0
00:25 1021 30.15 850 25.1 10.7 51.3 66 4.7 40.4 0 0
00:30 1021 30.15 850 25.1 10.3 50.5 67 4.5 40.1 0 0
00:35 1021 30.15 850 25.1 10.5 50.9 64 4.1 39.4 0 0
00:40 1021 30.15 850 25.1 10.5 50.9 67 4.6 40.3 0 0
00:45 1021 30.15 850 25.1 10.1 50.2 67 4.2 39.6 0 0
00:50 1021 30.15 850 25.1 10.3 50.6 65 4 39.2 0 0
00:55 1021 30.15 850 25.1 10.3 50.6 67 4.4 40 0 0
01:00 1021 30.15 850 25.1 9.8 49.6 70 4.7 40.4 0 0
01:05 1021 30.15 850 25.1 9.1 48.4 72 4.3 39.7 0 0
01:10 1021 30.15 850 25.1 9.1 48.4 71 4.1 39.4 0 0
01:15 1021 30.15 850 25.1 9.3 48.8 69 4 39.2 0 0
01:20 1021 30.15 850 25.1 9.8 49.7 66 3.9 39 0 0
01:25 1021 30.15 850 25.1 9.9 49.9 66 4 39.2 0 0
01:30 1021 30.15 850 25.1 9.9 49.8 66 4 39.1 0 0
01:35 1021 30.15 850 25.1 9.7 49.5 67 3.9 39 0 0
01:40 1021 30.15 850 25.1 9.5 49.1 69 4.1 39.4 0 0
01:45 1021 30.15 850 25.1 9.3 48.7 69 3.9 39 0 0
01:50 1021 30.15 850 25.1 9.4 48.9 68 3.8 38.9 0 0
01:55 1021 30.15 850 25.1 9.2 48.6 73 4.7 40.5 0 0
02:00 1021 30.15 850 25.1 7.8 46.1 78 4.3 39.8 0 0
02:05 1021 30.15 850 25.1 7.7 45.9 76 3.8 38.8 0 0
02:10 1021 30.15 850 25.1 7.6 45.7 77 3.8 38.8 0 0
02:15 1021 30.15 850 25.1 7.3 45.2 79 3.9 39 0 0
02:20 1021 30.15 851 25.13 7.2 45 78 3.7 38.6 0 0
02:25 1021 30.15 851 25.13 7.2 45 81 4.2 39.6 0 0
02:30 1021 30.15 851 25.13 6.8 44.3 81 3.9 39 0 0
02:35 1021 30.15 851 25.13 6.9 44.5 77 3.2 37.8 0 0
02:40 1021 30.15 851 25.13 7.6 45.6 76 3.7 38.6 0 0
02:45 1021 30.15 851 25.13 8 46.4 75 3.8 38.8 0 0
02:50 1021 30.15 851 25.13 7.4 45.3 81 4.3 39.8 0 0
02:55 1021 30.15 851 25.13 6.5 43.7 84 3.9 39.1 0 0
03:00 1021 30.15 851 25.13 6.2 43.2 84 3.7 38.7 0 0
03:05 1021 30.15 851 25.13 6.3 43.3 84 3.8 38.9 0 0
03:10 1022 30.18 851 25.13 6 42.8 85 3.7 38.6 0 0
03:15 1022 30.18 851 25.13 5.9 42.7 84 3.5 38.2 0 0
03:20 1022 30.18 851 25.13 5.7 42.3 87 3.7 38.6 0 0
03:25 1022 30.18 851 25.13 5.3 41.6 88 3.5 38.4 0 0
03:30 1022 30.18 851 25.13 5 41 89 3.3 38 0 0
03:35 1022 30.18 851 25.13 5.4 41.7 87 3.4 38.2 0 0
03:40 1022 30.18 851 25.13 5.8 42.4 86 3.5 38.3 0 0
03:45 1022 30.18 851 25.13 5.4 41.7 88 3.6 38.5 0 0
03:50 1022 30.18 851 25.13 5.1 41.2 89 3.4 38.1 0 0
03:55 1022 30.18 851 25.13 5.3 41.5 88 3.4 38.2 0 0
04:00 1022 30.18 851 25.13 5.6 42.1 86 3.5 38.3 0 0
04:05 1022 30.18 851 25.13 6 42.9 83 3.5 38.2 0 0
04:10 1022 30.18 851 25.13 6.5 43.7 82 3.7 38.6 0 0
04:15 1022 30.18 851 25.13 6 42.7 85 3.6 38.5 0 0
04:20 1022 30.18 851 25.13 5.8 42.4 84 3.2 37.8 0 0
04:25 1022 30.18 851 25.13 5.7 42.3 84 3.2 37.8 0 0
04:30 1022 30.18 851 25.13 5.7 42.3 84 3.2 37.7 0 0
04:35 1022 30.18 851 25.13 6.1 43 80 3 37.4 0 0
04:40 1022 30.18 851 25.13 6.2 43.2 79 2.9 37.3 0 0
04:45 1022 30.18 851 25.13 6 42.9 83 3.3 37.9 0 0
04:50 1022 30.18 851 25.13 5.5 42 86 3.4 38.1 0 0
04:55 1022 30.18 851 25.13 5.9 42.7 81 2.9 37.2 0 0
05:00 1022 30.18 852 25.16 6.9 44.4 78 3.2 37.8 0 0
05:05 1022 30.18 852 25.16 6.8 44.2 80 3.7 38.6 0 0
05:10 1022 30.18 852 25.16 6 42.7 84 3.5 38.3 0 0
05:15 1022 30.18 852 25.16 5.5 41.9 87 3.5 38.2 0 0
05:20 1022 30.18 852 25.16 5.2 41.3 86 3.1 37.5 0 0
05:25 1022 30.18 852 25.16 4.7 40.4 89 3 37.4 0 0
05:30 1022 30.18 852 25.16 4.5 40.1 89 2.8 37.1 0 0
05:35 1022 30.18 852 25.16 4.9 40.7 89 3.1 37.6 0 0
05:40 1023 30.21 852 25.16 5.1 41.2 86 2.9 37.3 0 0
05:45 1023 30.21 852 25.16 4.9 40.8 87 3 37.4 0 0
05:50 1023 30.21 852 25.16 4.6 40.3 89 3 37.4 0 0
05:55 1023 30.21 852 25.16 5.2 41.3 87 3.2 37.8 0 0
06:00 1023 30.21 852 25.16 5.6 42.1 87 3.6 38.4 0 0
06:05 1023 30.21 852 25.16 5.9 42.5 86 3.7 38.7 0 0
06:10 1023 30.21 852 25.16 5.9 42.6 85 3.6 38.6 0 0
06:15 1023 30.21 852 25.16 6.2 43.2 85 3.9 39 0 0
06:20 1023 30.21 852 25.16 6.4 43.6 84 4 39.2 0 0
06:25 1023 30.21 852 25.16 6.8 44.3 84 4.3 39.7 0 0
06:30 1023 30.21 852 25.16 7.2 44.9 81 4.2 39.5 0 0
06:35 1023 30.21 852 25.16 7.8 46 78 4.2 39.5 0 0
06:40 1023 30.21 852 25.16 8.3 47 77 4.6 40.3 0 0
06:45 1023 30.21 852 25.16 8.7 47.7 77 4.9 40.8 0 0
06:50 1023 30.21 852 25.16 9.3 48.7 74 4.9 40.9 0 0
06:55 1023 30.21 852 25.16 9.7 49.5 73 5.1 41.1 0 0
07:00 1023 30.21 852 25.16 9.9 49.8 74 5.5 41.9 0 0
07:05 1023 30.21 852 25.16 10.1 50.2 72 5.3 41.6 0 0
07:10 1023 30.21 852 25.16 10.3 50.6 73 5.8 42.4 0 0
07:15 1023 30.21 852 25.16 10.2 50.4 75 6 42.8 0 0
07:20 1023 30.21 852 25.16 10.7 51.2 71 5.6 42 0 0
07:25 1023 30.21 852 25.16 11.2 52.2 70 6 42.8 0 0
07:30 1023 30.21 852 25.16 11.3 52.3 70 6 42.9 0 0
07:35 1023 30.21 852 25.16 11.1 52.1 69 5.8 42.4 0 0
07:40 1023 30.21 852 25.16 11 51.8 73 6.3 43.3 0 0
07:45 1023 30.21 852 25.16 11.3 52.3 72 6.4 43.5 0 0
07:50 1023 30.21 852 25.16 12 53.6 70 6.8 44.2 0 0
07:55 1023 30.21 852 25.16 12.8 55.1 68 7.2 45 0 0
08:00 1023 30.21 852 25.16 13.4 56.1 66 7.3 45.2 0 0
08:05 1023 30.21 852 25.16 13.7 56.6 61 6.5 43.6 0 0
08:10 1023 30.21 852 25.16 13.8 56.9 61 6.6 43.8 0 0
08:15 1023 30.21 852 25.16 14.2 57.5 61 6.7 44.1 0 0
08:20 1023 30.21 852 25.16 14.7 58.4 61 7.3 45.1 0 0
08:25 1023 30.21 852 25.16 15.2 59.4 55 6.4 43.6 0 0
08:30 1023 30.21 852 25.16 15.6 60.1 60 7.9 46.3 0 0
08:35 1023 30.21 852 25.16 15.6 60 68 9.7 49.4 0 0
08:40 1023 30.21 852 25.16 15.5 59.9 64 8.8 47.8 0 0
08:45 1023 30.21 852 25.16 15.7 60.2 59 7.8 46 0 0
08:50 1023 30.21 852 25.16 15.8 60.5 56 7 44.7 0 0
08:55 1023 30.21 852 25.16 15.7 60.3 58 7.5 45.5 0 0
09:00 1023 30.21 852 25.16 15.7 60.3 65 9.3 48.8 0 0
09:05 1023 30.21 852 25.16 15.8 60.4 66 9.4 48.9 0 0
09:10 1023 30.21 852 25.16 15.6 60.2 61 8.3 46.9 0 0
09:15 1023 30.21 852 25.16 15.5 59.8 66 9.1 48.4 0 0
09:20 1023 30.21 852 25.16 15.3 59.6 62 8.2 46.7 0 0
09:25 1023 30.21 852 25.16 15.2 59.4 63 8.4 47.1 0 0
09:30 1023 30.21 852 25.16 15.3 59.5 65 8.8 47.8 0 0
09:35 1023 30.21 852 25.16 15.4 59.8 59 7.4 45.4 0 0
09:40 1023 30.21 852 25.16 15.5 60 60 7.8 46.1 0 0
09:45 1023 30.21 852 25.16 15.7 60.3 58 7.6 45.6 0 0
09:50 1023 30.21 852 25.16 16 60.7 61 8.6 47.5 0 0
09:55 1023 30.21 852 25.16 16.4 61.5 53 6.8 44.2 0 0
10:00 1023 30.21 852 25.16 17.2 62.9 44 5.1 41.2 0 0
10:05 1023 30.21 852 25.16 17.3 63.1 53 7.7 45.8 0 0
10:10 1023 30.21 852 25.16 17.2 63 53 7.6 45.6 0 0
10:15 1023 30.21 852 25.16 17.1 62.8 56 8.3 46.9 0 0
10:20 1023 30.21 852 25.16 17.1 62.7 44 4.9 40.9 0 0
10:25 1023 30.21 852 25.16 17.2 63 52 7.4 45.3 0 0
10:30 1023 30.21 852 25.16 17.5 63.4 43 4.8 40.7 0 0
10:35 1023 30.21 852 25.16 17.7 63.8 48 6.8 44.2 0 0
10:40 1023 30.21 852 25.16 17.6 63.7 52 7.8 46.1 0 0
10:45 1023 30.21 852 25.16 17.4 63.3 43 4.8 40.7 0 0
10:50 1023 30.21 852 25.16 17.2 62.9 43 4.6 40.3 0 0
10:55 1023 30.21 852 25.16 17.4 63.2 45 5.5 41.9 0 0
11:00 1023 30.21 852 25.16 17.8 64 46 6.2 43.2 0 0
11:05 1023 30.21 852 25.16 18.1 64.5 48 6.9 44.4 0 0
11:10 1023 30.21 852 25.16 18.3 64.9 47 6.8 44.2 0 0
11:15 1023 30.21 852 25.16 18.4 65.2 48 7.4 45.3 0 0
11:20 1023 30.21 852 25.16 18.7 65.6 44 6.2 43.1 0 0
11:25 1023 30.21 852 25.16 18.5 65.3 47 7.2 45 0 0
11:30 1023 30.21 852 25.16 18.4 65.1 40 4.7 40.5 0 0
11:35 1023 30.21 852 25.16 18.4 65.2 46 6.7 44.1 0 0
11:40 1023 30.21 852 25.16 18.1 64.7 45 6.2 43.2 0 0
11:45 1023 30.21 852 25.16 18.1 64.5 48 7 44.6 0 0
11:50 1023 30.21 852 25.16 18.2 64.7 43 5.7 42.2 0 0
11:55 1023 30.21 852 25.16 18.5 65.3 49 7.6 45.7 0 0
12:00 1023 30.21 852 25.16 18.5 65.4 47 7.3 45.1 0 0
12:05 1023 30.21 852 25.16 18.8 65.9 59 10.9 51.5 0 0
12:10 1023 30.21 852 25.16 19.1 66.3 48 7.9 46.1 0 0
12:15 1023 30.21 852 25.16 19.1 66.3 51 8.8 47.9 0 0
12:20 1023 30.21 852 25.16 19 66.1 49 8.2 46.8 0 0
12:25 1023 30.21 852 25.16 19 66.3 52 9.2 48.6 0 0
12:30 1023 30.21 852 25.16 19.3 66.7 41 5.8 42.5 0 0
12:35 1023 30.21 852 25.16 19.4 66.9 39 5.4 41.7 0 0
12:40 1023 30.21 852 25.16 19.3 66.7 41 5.9 42.7 0 0
12:45 1023 30.21 852 25.16 19.4 66.9 51 9.2 48.6 0 0
12:50 1023 30.21 852 25.16 19.6 67.2 35 4 39.2 0 0
12:55 1023 30.21 852 25.16 19.7 67.5 37 4.8 40.7 0 0
13:00 1023 30.21 852 25.16 19.6 67.3 41 6.3 43.3 0 0
13:05 1023 30.21 852 25.16 19.7 67.4 44 7.3 45.2 0 0
13:10 1023 30.21 852 25.16 19.7 67.4 33 3.1 37.6 0 0
13:15 1023 30.21 852 25.16 20 68 29 1.6 34.9 0 0
13:20 1023 30.21 852 25.16 20.2 68.4 43 7.3 45.2 0 0
13:25 1023 30.21 852 25.16 20 68 40 6.1 43 0 0
13:30 1023 30.21 852 25.16 20.1 68.1 38 5.3 41.5 0 0
13:35 1023 30.21 852 25.16 20.4 68.8 40 6.4 43.5 0 0
13:40 1023 30.21 852 25.16 20.8 69.4 30 2.6 36.6 0 0
13:45 1023 30.21 852 25.16 20.9 69.5 32 3.8 38.8 0 0
13:50 1023 30.21 852 25.16 20.4 68.8 42 7.3 45.1 0 0
13:55 1023 30.21 852 25.16 20.4 68.7 34 4.3 39.8 0 0
14:00 1022 30.18 852 25.16 20.4 68.6 41 6.8 44.2 0 0
14:05 1022 30.18 852 25.16 20.4 68.7 35 4.7 40.5 0 0
14:10 1022 30.18 852 25.16 20.3 68.5 34 3.9 39 0 0
14:15 1022 30.18 852 25.16 20.8 69.4 32 3.9 39 0 0
14:20 1022 30.18 852 25.16 21.1 69.9 44 8.6 47.4 0 0
14:25 1022 30.18 851 25.13 21.3 70.3 35 5.5 41.9 0 0
14:30 1022 30.18 851 25.13 20.7 69.2 35 4.8 40.7 0 0
14:35 1022 30.18 851 25.13 20.7 69.3 29 2.4 36.3 0 0
14:40 1022 30.18 851 25.13 20.9 69.7 28 1.7 35.1 0 0
14:45 1022 30.18 851 25.13 21 69.7 38 6.2 43.2 0 0
14:50 1022 30.18 851 25.13 21.4 70.5 29 2.6 36.7 0 0
14:55 1022 30.18 851 25.13 21.9 71.5 32 4.9 40.8 0 0
15:00 1022 30.18 851 25.13 21.8 71.2 34 5.3 41.5 0 0
15:05 1022 30.18 851 25.13 21.3 70.3 38 6.6 43.9 0 0
15:10 1022 30.18 851 25.13 21.4 70.6 42 8 46.4 0 0
15:15 1022 30.18 851 25.13 21.5 70.7 32 4.3 39.7 0 0
15:20 1022 30.18 851 25.13 21.5 70.8 27 2 35.6 0 0
15:25 1022 30.18 851 25.13 21.7 71.1 28 2.8 37.1 0 0
15:30 1022 30.18 851 25.13 21.7 71.1 30 3.8 38.8 0 0
15:35 1022 30.18 851 25.13 21.8 71.3 36 6.3 43.4 0 0
15:40 1022 30.18 851 25.13 21.9 71.3 30 3.7 38.6 0 0
15:45 1022 30.18 851 25.13 21.6 70.9 33 5 40.9 0 0
15:50 1022 30.18 851 25.13 21.5 70.7 38 6.9 44.5 0 0
15:55 1022 30.18 851 25.13 21.6 70.8 35 5.8 42.4 0 0
16:00 1022 30.18 851 25.13 21.6 70.9 43 8.8 47.9 0 0
16:05 1022 30.18 851 25.13 21.5 70.8 37 6.3 43.3 0 0
16:10 1021 30.15 851 25.13 21.6 70.9 27 1.9 35.4 0 0
16:15 1021 30.15 851 25.13 21.9 71.4 34 5.6 42 0 0
16:20 1021 30.15 851 25.13 21.7 71.1 34 5.2 41.4 0 0
16:25 1021 30.15 851 25.13 21.8 71.2 31 4.2 39.5 0 0
16:30 1021 30.15 850 25.1 22.3 72.1 31 4.6 40.3 0 0
16:35 1021 30.15 850 25.1 22.1 71.7 41 8.4 47.1 0 0
16:40 1021 30.15 850 25.1 21.7 71 28 2.8 37.1 0 0
16:45 1021 30.15 850 25.1 21.4 70.5 36 5.8 42.5 0 0
16:50 1021 30.15 850 25.1 21.1 70.1 33 4.6 40.2 0 0
16:55 1021 30.15 850 25.1 21.2 70.1 36 5.8 42.4 0 0
17:00 1021 30.15 850 25.1 21.4 70.5 28 2.4 36.4 0 0
17:05 1021 30.15 850 25.1 21.7 71.1 42 8.4 47.2 0 0
17:10 1021 30.15 850 25.1 22.1 71.9 32 5 41 0 0
17:15 1021 30.15 850 25.1 21.9 71.5 31 4 39.2 0 0
17:20 1021 30.15 850 25.1 22 71.6 30 3.6 38.6 0 0
17:25 1021 30.15 850 25.1 22.5 72.4 30 4.3 39.7 0 0
17:30 1021 30.15 850 25.1 22.5 72.5 33 5.8 42.4 0 0
17:35 1021 30.15 850 25.1 22.5 72.5 36 6.8 44.2 0 0
17:40 1021 30.15 850 25.1 22.3 72.1 35 6.4 43.5 0 0
17:45 1021 30.15 850 25.1 22.1 71.7 33 5.4 41.8 0 0
17:50 1021 30.15 850 25.1 22.2 72 27 2.4 36.3 0 0
17:55 1021 30.15 850 25.1 22.4 72.2 29 3.5 38.4 0 0
18:00 1021 30.15 850 25.1 22.2 71.9 32 4.7 40.5 0 0
18:05 1021 30.15 850 25.1 21.9 71.4 31 4 39.2 0 0
18:10 1021 30.15 850 25.1 21.8 71.3 37 6.8 44.3 0 0
18:15 1021 30.15 850 25.1 22.1 71.8 32 4.8 40.7 0 0
18:20 1021 30.15 850 25.1 21.8 71.3 33 5 41 0 0
18:25 1021 30.15 850 25.1 21.6 71 38 6.8 44.3 0 0
18:30 1021 30.15 850 25.1 21.8 71.3 28 2.6 36.6 0 0
18:35 1020 30.12 850 25.1 22.1 71.8 35 6.1 42.9 0 0
18:40 1020 30.12 850 25.1 22.2 71.9 36 6.7 44.1 0 0
18:45 1020 30.12 850 25.1 22 71.6 30 3.7 38.6 0 0
18:50 1020 30.12 850 25.1 22.5 72.5 26 2.3 36.2 0 0
18:55 1020 30.12 850 25.1 22.9 73.1 30 4.6 40.4 0 0
19:00 1020 30.12 850 25.1 23 73.3 26 2.8 37 0 0
19:05 1020 30.12 850 25.1 23.5 74.3 27 3.5 38.4 0 0
19:10 1020 30.12 850 25.1 24.1 75.4 24 2.4 36.3 0 0
19:15 1020 30.12 850 25.1 24.1 75.5 33 7 44.6 0 0
19:20 1020 30.12 850 25.1 23.9 75 26 3.2 37.8 0 0
19:25 1020 30.12 850 25.1 23.4 74.2 31 5.4 41.7 0 0
19:30 1020 30.12 850 25.1 23.2 73.7 28 4 39.3 0 0
19:35 1020 30.12 850 25.1 22.7 72.9 32 5.4 41.8 0 0
19:40 1020 30.12 850 25.1 22.5 72.5 30 4.3 39.7 0 0
19:45 1020 30.12 850 25.1 22.4 72.4 29 3.7 38.6 0 0
19:50 1020 30.12 850 25.1 22.3 72.1 40 8.3 47 0 0
19:55 1020 30.12 849 25.07 22.3 72.2 44 9.6 49.3 0 0
20:00 1020 30.12 849 25.07 22.4 72.2 42 9 48.3 0 0
20:05 1020 30.12 849 25.07 21.9 71.5 47 10.3 50.6 0 0
20:10 1020 30.12 849 25.07 20.7 69.2 52 10.5 50.9 0 0
20:15 1020 30.12 849 25.07 20 67.9 54 10.6 51.1 0 0
20:20 1020 30.12 849 25.07 19.9 67.8 47 8.5 47.4 0 0
20:25 1020 30.12 849 25.07 19.6 67.3 57 11.1 51.9 0 0
20:30 1020 30.12 849 25.07 18.4 65.1 61 10.8 51.4 0 0
20:35 1020 30.12 849 25.07 17.3 63.2 62 10.1 50.2 0 0
20:40 1020 30.12 849 25.07 16.1 60.9 66 9.8 49.6 0 0
20:45 1020 30.12 849 25.07 15.7 60.3 58 7.6 45.8 0 0
20:50 1020 30.12 849 25.07 15.8 60.5 60 8.2 46.8 0 0
20:55 1020 30.12 849 25.07 15.5 59.9 60 7.8 46.1 0 0
21:00 1020 30.12 849 25.07 15.2 59.4 63 8.3 46.9 0 0
21:05 1020 30.12 849 25.07 14.7 58.5 63 7.9 46.2 0 0
21:10 1020 30.12 849 25.07 14.6 58.2 63 7.7 45.8 0 0
21:15 1020 30.12 849 25.07 14.6 58.3 62 7.5 45.5 0 0
21:20 1020 30.12 850 25.1 14.6 58.2 61 7.1 44.9 0 0
21:25 1020 30.12 850 25.1 14.6 58.2 64 8 46.4 0 0
21:30 1020 30.12 850 25.1 13.6 56.5 66 7.3 45.2 0 0
21:35 1020 30.12 849 25.07 12.9 55.2 68 7.3 45.1 0 0
21:40 1020 30.12 849 25.07 12.3 54.1 71 7.1 44.8 0 0
21:45 1020 30.12 849 25.07 12.1 53.9 70 6.9 44.5 0 0
21:50 1020 30.12 850 25.1 12 53.6 71 7 44.5 0 0
21:55 1020 30.12 850 25.1 11.7 53.1 70 6.4 43.5 0 0
22:00 1020 30.12 850 25.1 11.7 53.1 68 6 42.7 0 0
22:05 1021 30.15 850 25.1 12.5 54.5 65 6 42.9 0 0
22:10 1021 30.15 850 25.1 12.5 54.5 67 6.5 43.8 0 0
22:15 1021 30.15 850 25.1 12.2 53.9 68 6.6 43.9 0 0
22:20 1021 30.15 850 25.1 12.5 54.4 67 6.5 43.6 0 0
22:25 1021 30.15 850 25.1 12.8 55.1 66 6.6 43.9 0 0
22:30 1021 30.15 850 25.1 13.1 55.5 66 6.9 44.3 0 0
22:35 1021 30.15 850 25.1 13 55.3 68 7.2 44.9 0 0
22:40 1021 30.15 850 25.1 12.6 54.6 69 7 44.7 0 0
22:45 1021 30.15 850 25.1 12.4 54.4 69 7 44.5 0 0
22:50 1021 30.15 850 25.1 12.5 54.5 70 7.1 44.8 0 0
22:55 1021 30.15 850 25.1 12.3 54.1 69 6.9 44.4 0 0
23:00 1021 30.15 850 25.1 12.8 55.1 66 6.8 44.2 0 0
23:05 1021 30.15 850 25.1 13.2 55.8 66 7.1 44.8 0 0
23:10 1021 30.15 850 25.1 12.8 55 69 7.2 45 0 0
23:15 1021 30.15 850 25.1 12.7 54.8 67 6.8 44.3 0 0
23:20 1021 30.15 850 25.1 13.1 55.5 66 7 44.6 0 0
23:25 1021 30.15 850 25.1 13.3 56 67 7.3 45.1 0 0
23:30 1021 30.15 850 25.1 13.3 56 66 7.2 45 0 0
23:35 1021 30.15 850 25.1 13.3 56 68 7.6 45.6 0 0
23:40 1021 30.15 850 25.1 12.7 54.8 71 7.6 45.6 0 0
23:45 1021 30.15 850 25.1 12.3 54.1 72 7.4 45.3 0 0
23:50 1021 30.15 850 25.1 12.3 54.1 71 7.3 45.1 0 0
23:55 1021 30.15 850 25.1 12.4 54.3 71 7.2 45 0 0
24:00 1021 30.15 850 25.1 12.7 54.8 70 7.3 45.2 0 0